createdAt,value
2022-08-03T00:02:44.087Z,100824.69
2022-08-03T00:06:46.614Z,100825.56
2022-08-03T00:10:49.027Z,100830.63
2022-08-03T00:14:51.551Z,100831.59
2022-08-03T00:18:53.886Z,100827.50
2022-08-03T00:22:56.704Z,100832.19
2022-08-03T00:26:59.166Z,100829.19
2022-08-03T00:31:01.420Z,100824.69
2022-08-03T00:35:08.346Z,100828.81
2022-08-03T00:39:12.955Z,100819.41
2022-08-03T00:43:14.934Z,100821.94
2022-08-03T00:47:17.258Z,100828.69
2022-08-03T00:51:21.915Z,100829.63
2022-08-03T00:55:24.820Z,100834.94
2022-08-03T00:59:27.531Z,100834.34
2022-08-03T01:03:29.995Z,100825.53
2022-08-03T01:08:10.528Z,100831.06
2022-08-03T01:12:48.188Z,100839.25
2022-08-03T01:16:57.285Z,100850.53
2022-08-03T01:21:07.846Z,100845.78
2022-08-03T01:25:36.908Z,100846.13
2022-08-03T01:29:39.083Z,100844.47
2022-08-03T01:33:44.205Z,100849.03
2022-08-03T01:37:56.302Z,100843.84
2022-08-03T01:42:22.037Z,100838.53
2022-08-03T01:46:47.732Z,100837.47
2022-08-03T01:50:53.308Z,100833.38
2022-08-03T01:54:56.642Z,100823.88
2022-08-03T01:59:02.367Z,100812.28
2022-08-03T02:03:07.064Z,100821.97
2022-08-03T02:07:10.804Z,100817.66
2022-08-03T02:11:13.792Z,100820.66
2022-08-03T02:15:38.252Z,100819.53
2022-08-03T02:19:43.415Z,100818.97
2022-08-03T02:23:45.515Z,100818.81
2022-08-03T02:28:02.221Z,100816.03
2022-08-03T02:32:04.814Z,100824.47
2022-08-03T02:36:28.574Z,100812.34
2022-08-03T02:40:34.085Z,100810.03
2022-08-03T02:44:38.487Z,100816.50
2022-08-03T02:48:41.942Z,100820.22
2022-08-03T02:52:47.819Z,100821.47
2022-08-03T02:56:52.252Z,100825.75
2022-08-03T03:00:56.000Z,100829.06
2022-08-03T03:05:52.989Z,100829.88
2022-08-03T03:09:22.773Z,100826.53
2022-08-03T03:13:27.212Z,100826.06
2022-08-03T03:17:31.453Z,100837.38
2022-08-03T03:21:34.117Z,100860.00
2022-08-03T03:25:37.617Z,100864.63
2022-08-03T03:29:41.226Z,100867.03
2022-08-03T03:33:44.277Z,100850.50
2022-08-03T03:37:46.886Z,100838.53
2022-08-03T03:41:49.579Z,100850.25
2022-08-03T03:45:53.733Z,100855.03
2022-08-03T03:50:36.015Z,100858.81
2022-08-03T03:54:42.777Z,100858.81
2022-08-03T03:58:45.178Z,100869.44
2022-08-03T04:02:47.835Z,100861.13
2022-08-03T04:07:09.122Z,100860.88
2022-08-03T04:11:20.398Z,100877.25
2022-08-03T04:15:34.148Z,100889.66
2022-08-03T04:19:57.743Z,100894.16
2022-08-03T04:24:03.885Z,100872.63
2022-08-03T04:28:31.262Z,100867.53
2022-08-03T04:32:37.436Z,100884.81
2022-08-03T04:36:48.679Z,100900.84
2022-08-03T04:40:52.861Z,100901.72
2022-08-03T04:45:01.092Z,100927.31
2022-08-03T04:49:05.751Z,100926.09
2022-08-03T04:53:09.109Z,100920.75
2022-08-03T04:57:22.340Z,100924.59
2022-08-03T05:01:25.924Z,100895.03
2022-08-03T05:05:50.291Z,100871.16
2022-08-03T05:09:52.997Z,100875.69
2022-08-03T05:14:03.974Z,100877.41
2022-08-03T05:18:09.537Z,100868.03
2022-08-03T05:22:14.605Z,100871.97
2022-08-03T05:26:17.223Z,100877.06
2022-08-03T05:30:31.239Z,100863.09
2022-08-03T05:34:37.891Z,100858.50
2022-08-03T05:38:40.180Z,100863.28
2022-08-03T05:42:42.244Z,100873.66
2022-08-03T05:46:44.540Z,100856.72
2022-08-03T05:50:46.566Z,100855.28
2022-08-03T05:54:55.492Z,100857.50
2022-08-03T05:59:11.360Z,100842.78
2022-08-03T06:03:22.225Z,100851.72
2022-08-03T06:07:24.660Z,100853.53
2022-08-03T06:11:27.011Z,100859.44
2022-08-03T06:15:29.397Z,100859.44
2022-08-03T06:19:31.865Z,100867.00
2022-08-03T06:23:54.356Z,100857.06
2022-08-03T06:27:57.185Z,100850.06
2022-08-03T06:31:59.254Z,100852.22
2022-08-03T06:36:01.744Z,100858.78
2022-08-03T06:40:04.193Z,100870.78
2022-08-03T06:44:06.475Z,100878.44
2022-08-03T06:48:11.910Z,100865.38
2022-08-03T06:52:14.299Z,100872.28
2022-08-03T06:56:36.537Z,100859.09
2022-08-03T07:00:39.160Z,100859.69
2022-08-03T07:04:41.159Z,100860.78
2022-08-03T07:08:43.536Z,100855.97
2022-08-03T07:12:55.597Z,100858.25
2022-08-03T07:16:58.576Z,100869.03
2022-08-03T07:21:00.587Z,100871.25
2022-08-03T07:25:03.306Z,100869.00
2022-08-03T07:29:14.829Z,100871.06
2022-08-03T07:33:17.815Z,100875.28
2022-08-03T07:37:19.931Z,100882.59
2022-08-03T07:41:22.389Z,100872.09
2022-08-03T07:45:24.685Z,100889.03
2022-08-03T07:49:26.988Z,100905.34
2022-08-03T07:53:29.085Z,100901.19
2022-08-03T07:57:31.346Z,100907.03
2022-08-03T08:01:36.724Z,100898.69
2022-08-03T08:05:39.022Z,100892.88
2022-08-03T08:09:41.051Z,100922.25
2022-08-03T08:13:43.271Z,100927.09
2022-08-03T08:17:48.584Z,100925.06
2022-08-03T08:21:53.162Z,100949.63
2022-08-03T08:26:04.250Z,100968.16
2022-08-03T08:30:11.465Z,100979.63
2022-08-03T08:34:14.976Z,101012.50
2022-08-03T08:38:17.207Z,101011.94
2022-08-03T08:42:19.384Z,101011.78
2022-08-03T08:46:23.092Z,101011.72
2022-08-03T08:50:27.691Z,101021.72
2022-08-03T08:54:33.365Z,101026.81
2022-08-03T08:58:38.902Z,101015.22
2022-08-03T09:02:45.655Z,101022.75
2022-08-03T09:07:10.574Z,101023.16
2022-08-03T09:11:11.946Z,101015.97
2022-08-03T09:15:23.030Z,101016.72
2022-08-03T09:19:25.352Z,101018.78
2022-08-03T09:24:01.588Z,101024.41
2022-08-03T09:28:10.827Z,101025.78
2022-08-03T09:32:13.599Z,101015.72
2022-08-03T09:36:37.405Z,101018.34
2022-08-03T09:40:40.578Z,101014.59
2022-08-03T09:44:46.719Z,101020.50
2022-08-03T09:48:48.804Z,101011.03
2022-08-03T09:52:52.841Z,101008.59
2022-08-03T09:56:55.173Z,101010.72
2022-08-03T10:01:00.276Z,101012.66
2022-08-03T10:05:02.965Z,101002.72
2022-08-03T10:09:10.778Z,101006.94
2022-08-03T10:13:18.090Z,101003.56
2022-08-03T10:17:24.717Z,101003.50
2022-08-03T10:21:32.550Z,101010.22
2022-08-03T10:25:38.551Z,101002.03
2022-08-03T10:29:48.494Z,101005.22
2022-08-03T10:33:53.331Z,101007.31
2022-08-03T10:38:06.954Z,101004.31
2022-08-03T10:42:10.780Z,101009.72
2022-08-03T10:46:20.727Z,101006.50
2022-08-03T10:50:25.163Z,100999.03
2022-08-03T10:54:59.671Z,100999.38
2022-08-03T10:59:03.795Z,101005.22
2022-08-03T11:03:14.658Z,101003.66
2022-08-03T11:07:22.398Z,100994.31
2022-08-03T11:11:47.503Z,100998.97
2022-08-03T11:15:59.710Z,100996.84
2022-08-03T11:20:05.428Z,100992.31
2022-08-03T11:24:08.102Z,100989.34
2022-08-03T11:28:27.201Z,100995.41
2022-08-03T11:32:38.492Z,100986.75
2022-08-03T11:37:18.116Z,100984.13
2022-08-03T11:41:42.731Z,100976.44
2022-08-03T11:46:29.679Z,100974.59
2022-08-03T11:50:38.426Z,100978.41
2022-08-03T11:54:41.004Z,100971.25
2022-08-03T11:59:15.008Z,100959.72
2022-08-03T12:03:17.220Z,100967.03
2022-08-03T12:07:25.002Z,100963.28
2022-08-03T12:11:59.545Z,100958.84
2022-08-03T12:16:03.331Z,100966.06
2022-08-03T12:20:07.696Z,100968.63
2022-08-03T12:24:10.336Z,100954.41
2022-08-03T12:28:36.295Z,100961.88
2022-08-03T12:32:39.887Z,100955.63
2022-08-03T12:36:56.997Z,100954.53
2022-08-03T12:41:01.610Z,100953.19
2022-08-03T12:45:23.700Z,100954.38
2022-08-03T12:49:26.617Z,100948.16
2022-08-03T12:53:30.221Z,100943.06
2022-08-03T12:57:42.362Z,100934.66
2022-08-03T13:01:54.894Z,100939.44
2022-08-03T13:05:59.018Z,100937.88
2022-08-03T13:10:04.930Z,100924.47
2022-08-03T13:14:10.068Z,100917.28
2022-08-03T13:18:19.524Z,100915.13
2022-08-03T13:22:24.414Z,100908.16
2022-08-03T13:26:26.451Z,100921.47
2022-08-03T13:30:30.141Z,100912.63
2022-08-03T13:34:32.745Z,100905.44
2022-08-03T13:38:35.089Z,100908.16
2022-08-03T13:42:38.988Z,100916.75
2022-08-03T13:46:41.537Z,100910.44
2022-08-03T13:50:43.637Z,100907.41
2022-08-03T13:54:47.099Z,100904.63
2022-08-03T13:58:49.248Z,100905.56
2022-08-03T14:02:52.017Z,100904.09
2022-08-03T14:06:54.051Z,100902.84
2022-08-03T14:10:56.290Z,100900.13
2022-08-03T14:15:01.217Z,100897.13
2022-08-03T14:19:05.086Z,100896.19
2022-08-03T14:23:07.328Z,100893.66
2022-08-03T14:27:09.764Z,100892.00
2022-08-03T14:32:10.071Z,100885.81
2022-08-03T14:35:34.545Z,100881.38
2022-08-03T14:44:01.111Z,100874.22
2022-08-03T14:50:29.095Z,100870.69
2022-08-03T14:52:27.491Z,100874.22
2022-08-03T14:56:29.569Z,100876.75
2022-08-03T15:00:35.926Z,100869.00
2022-08-03T15:04:38.017Z,100863.41
2022-08-03T15:08:40.320Z,100863.38
2022-08-03T15:12:42.384Z,100868.84
2022-08-03T15:16:44.662Z,100876.22
2022-08-03T15:20:47.323Z,100878.28
2022-08-03T15:24:50.662Z,100866.81
2022-08-03T15:28:52.738Z,100871.50
2022-08-03T15:32:55.045Z,100864.09
2022-08-03T15:36:57.123Z,100863.09
2022-08-03T15:40:59.574Z,100863.25
2022-08-03T15:45:01.811Z,100864.44
2022-08-03T15:49:04.170Z,100863.03
2022-08-03T15:53:06.239Z,100858.06
2022-08-03T15:57:08.467Z,100853.34
2022-08-03T16:01:15.282Z,100848.91
2022-08-03T16:05:20.210Z,100846.81
2022-08-03T16:09:23.369Z,100836.34
2022-08-03T16:14:12.964Z,100834.69
2022-08-03T16:18:07.635Z,100829.75
2022-08-03T16:22:09.899Z,100829.53
2022-08-03T16:26:12.686Z,100831.69
2022-08-03T16:30:16.909Z,100824.13
2022-08-03T16:34:19.094Z,100825.44
2022-08-03T16:38:21.520Z,100824.78
2022-08-03T16:42:23.644Z,100820.34
2022-08-03T16:46:26.056Z,100820.66
2022-08-03T16:50:28.371Z,100813.91
2022-08-03T16:54:30.610Z,100812.31
2022-08-03T16:58:41.254Z,100796.00
2022-08-03T17:02:48.182Z,100797.81
2022-08-03T17:06:50.535Z,100801.16
2022-08-03T17:10:53.079Z,100774.53
2022-08-03T17:14:55.257Z,100757.47
2022-08-03T17:19:03.959Z,100766.06
2022-08-03T17:23:35.778Z,100776.81
2022-08-03T17:28:49.398Z,100790.75
2022-08-03T17:32:06.529Z,100778.38
2022-08-03T17:36:13.717Z,100783.75
2022-08-03T17:40:18.918Z,100789.09
2022-08-03T17:44:31.178Z,100777.22
2022-08-03T17:48:41.239Z,100792.16
2022-08-03T17:52:48.477Z,100787.81
2022-08-03T17:57:22.498Z,100799.72
2022-08-03T18:02:15.372Z,100774.75
2022-08-03T18:06:31.127Z,100790.50
2022-08-03T18:10:35.892Z,100775.59
2022-08-03T18:15:00.692Z,100784.28
2022-08-03T18:23:36.416Z,100777.88
2022-08-03T18:27:45.482Z,100779.53
2022-08-03T18:32:02.794Z,100791.88
2022-08-03T18:36:09.508Z,100804.75
2022-08-03T18:40:12.630Z,100796.16
2022-08-03T18:44:38.108Z,100785.50
2022-08-03T18:49:14.364Z,100802.81
2022-08-03T18:53:21.582Z,100793.06
2022-08-03T18:57:34.824Z,100806.88
2022-08-03T19:01:59.160Z,100807.50
2022-08-03T19:06:13.251Z,100809.97
2022-08-03T19:10:25.716Z,100797.19
2022-08-03T19:14:41.645Z,100798.25
2022-08-03T19:18:50.298Z,100808.22
2022-08-03T19:22:54.616Z,100809.91
2022-08-03T19:26:58.925Z,100796.44
2022-08-03T19:31:06.551Z,100796.22
2022-08-03T19:35:13.267Z,100800.09
2022-08-03T19:39:16.140Z,100797.78
2022-08-03T19:43:32.917Z,100796.16
2022-08-03T19:48:08.023Z,100794.66
2022-08-03T19:52:14.500Z,100805.09
2022-08-03T19:56:24.048Z,100802.44
2022-08-03T20:00:30.642Z,100800.34
2022-08-03T20:04:40.603Z,100806.56
2022-08-03T20:08:44.176Z,100796.50
2022-08-03T20:12:47.826Z,100798.91
2022-08-03T20:16:52.274Z,100804.59
2022-08-03T20:20:56.128Z,100811.44
2022-08-03T20:25:02.891Z,100810.75
2022-08-03T20:29:10.040Z,100812.06
2022-08-03T20:33:12.605Z,100811.66
2022-08-03T20:37:21.167Z,100806.88
2022-08-03T20:41:23.751Z,100812.91
2022-08-03T20:46:00.735Z,100813.75
2022-08-03T20:49:48.111Z,100816.72
2022-08-03T20:54:00.360Z,100813.34
2022-08-03T20:58:04.858Z,100821.50
2022-08-03T21:02:07.262Z,100829.09
2022-08-03T21:06:18.040Z,100846.19
2022-08-03T21:10:32.647Z,100851.81
2022-08-03T21:13:05.735Z,100783.41
2022-08-03T21:14:50.346Z,100836.94
2022-08-03T21:18:54.524Z,100839.44
2022-08-03T21:22:58.506Z,100841.16
2022-08-03T21:27:00.884Z,100842.13
2022-08-03T21:31:03.925Z,100836.66
2022-08-03T21:35:09.339Z,100828.66
2022-08-03T21:39:12.034Z,100836.22
2022-08-03T21:43:14.140Z,100838.31
2022-08-03T21:47:17.723Z,100843.06
2022-08-03T21:51:23.956Z,100840.09
2022-08-03T21:55:28.695Z,100851.88
2022-08-03T21:59:35.165Z,100843.19
2022-08-03T22:03:52.940Z,100855.34
2022-08-03T22:07:56.924Z,100856.16
2022-08-03T22:11:59.156Z,100846.59
2022-08-03T22:16:01.432Z,100856.53
2022-08-03T22:20:07.362Z,100850.72
2022-08-03T22:24:13.574Z,100855.53
2022-08-03T22:28:16.608Z,100857.50
2022-08-03T22:32:18.936Z,100860.16
2022-08-03T22:36:24.069Z,100856.59
2022-08-03T22:40:28.158Z,100862.91
2022-08-03T22:44:31.831Z,100861.78
2022-08-03T22:48:36.613Z,100864.00
2022-08-03T22:52:45.297Z,100865.66
2022-08-03T22:56:47.604Z,100858.13
2022-08-03T23:01:03.768Z,100861.28
2022-08-03T23:05:11.046Z,100870.50
2022-08-03T23:09:32.677Z,100875.25
2022-08-03T23:13:36.127Z,100868.09
2022-08-03T23:17:57.591Z,100870.66
2022-08-03T23:22:04.178Z,100868.72
2022-08-03T23:26:18.288Z,100852.50
2022-08-03T23:30:31.562Z,100853.50
2022-08-03T23:34:53.511Z,100857.50
2022-08-03T23:38:55.781Z,100853.28
2022-08-03T23:43:00.429Z,100862.81
2022-08-03T23:47:02.572Z,100872.28
2022-08-03T23:51:10.525Z,100866.97
2022-08-03T23:55:16.952Z,100856.47
